Time;durP1;ratioP1;P1;durP2;ratioP2;P2;SDS_P1;SDS_P2;PMS_P1;PMS_P2;Temp;Humidity;BMP_temperature;BMP_pressure;BME280_temperature;BME280_humidity;BME280_pressure;Samples;Min_cycle;Max_cycle;Signal;HPM_P1;HPM_P2
2022/08/18 00:02:19;;;;;;;17.65;13.40;;;;;;;21.16;81.79;100550.89;1799106;79;25702;-56
2022/08/18 00:04:46;;;;;;;22.75;13.03;;;;;;;21.18;81.64;100550.13;1802536;79;25691;-55
2022/08/18 00:07:18;;;;;;;26.17;13.70;;;;;;;21.24;81.81;100550.67;1810116;79;25783;-54
2022/08/18 00:09:46;;;;;;;18.40;12.30;;;;;;;21.33;81.87;100554.02;1810025;79;25865;-55
2022/08/18 00:12:27;;;;;;;26.45;13.58;;;;;;;21.41;81.85;100548.31;1810040;79;27457;-55
2022/08/18 00:14:56;;;;;;;22.58;12.33;;;;;;;21.48;81.42;100552.41;1808161;79;26038;-55
2022/08/18 00:17:23;;;;;;;20.85;13.30;;;;;;;21.53;81.39;100560.30;1809994;79;25865;-55
2022/08/18 00:19:50;;;;;;;20.90;12.85;;;;;;;21.56;81.02;100557.11;1809938;79;25718;-55
2022/08/18 00:22:20;;;;;;;17.77;13.28;;;;;;;21.48;80.77;100558.70;1810063;79;25683;-54
2022/08/18 00:24:51;;;;;;;18.07;13.00;;;;;;;21.43;80.89;100558.52;1811107;79;27449;-54
2022/08/18 00:27:22;;;;;;;23.27;13.45;;;;;;;21.41;80.88;100561.98;1811856;78;25747;-54
2022/08/18 00:29:51;;;;;;;24.23;14.50;;;;;;;21.44;81.07;100565.68;1812019;78;25733;-54
2022/08/18 00:32:23;;;;;;;22.13;12.85;;;;;;;21.45;80.86;100567.37;1811597;78;26780;-54
2022/08/18 00:34:51;;;;;;;20.52;13.72;;;;;;;21.49;81.53;100562.30;1812165;78;25751;-54
2022/08/18 00:37:17;;;;;;;21.68;13.95;;;;;;;21.47;81.35;100566.60;1811714;78;27394;-54
2022/08/18 00:39:44;;;;;;;18.40;12.18;;;;;;;21.52;81.40;100564.08;1812040;77;26116;-52
2022/08/18 00:42:20;;;;;;;18.95;11.73;;;;;;;21.48;81.22;100560.62;1811660;78;25853;-55
2022/08/18 00:44:48;;;;;;;22.37;11.53;;;;;;;21.40;81.02;100568.52;1811837;79;26485;-55
2022/08/18 00:47:15;;;;;;;16.95;10.68;;;;;;;21.31;81.44;100572.02;1810246;78;25678;-55
2022/08/18 00:49:45;;;;;;;15.85;10.50;;;;;;;21.26;81.63;100567.18;1809762;79;27502;-55
2022/08/18 00:52:15;;;;;;;15.38;11.12;;;;;;;21.27;81.61;100574.84;1809827;79;26338;-54
2022/08/18 00:54:45;;;;;;;15.43;10.48;;;;;;;21.29;81.92;100572.75;1803878;79;25825;-55
2022/08/18 00:57:15;;;;;;;21.75;11.43;;;;;;;21.29;81.91;100567.27;1800030;79;25767;-54
2022/08/18 01:00:04;;;;;;;18.90;11.08;;;;;;;21.22;82.69;100568.64;1800476;78;25990;-54
2022/08/18 01:02:33;;;;;;;20.05;11.50;;;;;;;21.10;82.87;100567.08;1799724;78;27726;-52
2022/08/18 01:05:11;;;;;;;21.23;10.70;;;;;;;20.95;83.64;100569.19;1807993;78;25938;-55
2022/08/18 01:07:45;;;;;;;20.15;11.53;;;;;;;20.87;84.14;100568.86;1817642;78;25673;-55
2022/08/18 01:10:16;;;;;;;20.52;10.95;;;;;;;20.81;85.06;100566.98;1818405;78;25921;-54
2022/08/18 01:12:50;;;;;;;21.77;12.80;;;;;;;20.74;85.42;100566.13;1809616;77;25702;-55
2022/08/18 01:15:20;;;;;;;16.50;11.57;;;;;;;20.71;85.54;100565.14;1772731;79;28464;-54
2022/08/18 01:24:04;;;;;;;18.52;11.30;;;;;;;20.61;87.63;100568.30;1803825;78;25963;-55
2022/08/18 01:26:36;;;;;;;22.77;12.23;;;;;;;20.58;86.95;100559.96;1806734;78;25874;-54
2022/08/18 01:29:11;;;;;;;16.95;11.85;;;;;;;20.57;88.22;100562.91;1806457;79;28273;-54
2022/08/18 01:31:42;;;;;;;21.70;12.23;;;;;;;20.53;88.25;100567.95;1786317;79;25818;-55
2022/08/18 01:34:10;;;;;;;20.80;12.75;;;;;;;20.50;88.69;100564.26;1806478;78;26473;-55
2022/08/18 01:36:40;;;;;;;20.20;12.20;;;;;;;20.51;88.46;100565.95;1806591;79;25941;-55
2022/08/18 01:39:11;;;;;;;19.45;12.63;;;;;;;20.51;88.93;100565.12;1806577;79;25770;-55
2022/08/18 01:41:40;;;;;;;20.35;13.15;;;;;;;20.53;88.81;100566.59;1806453;79;27445;-55
2022/08/18 01:44:10;;;;;;;24.90;11.95;;;;;;;20.54;88.87;100573.73;1806421;79;25718;-55
2022/08/18 01:46:40;;;;;;;16.30;12.40;;;;;;;20.58;88.18;100568.16;1799775;78;25688;-55
2022/08/18 01:49:09;;;;;;;18.60;11.40;;;;;;;20.60;88.50;100570.17;1794941;78;25760;-55
2022/08/18 01:51:40;;;;;;;19.45;11.57;;;;;;;20.61;88.23;100574.59;1794940;79;25743;-55
2022/08/18 01:54:05;;;;;;;17.73;11.15;;;;;;;20.62;88.13;100570.81;1792510;78;27467;-55
2022/08/18 01:56:32;;;;;;;27.30;10.55;;;;;;;20.61;88.91;100574.59;1788751;79;25748;-55
2022/08/18 01:59:01;;;;;;;17.40;11.18;;;;;;;20.59;89.00;100583.52;1788735;80;25462;-55
2022/08/18 02:01:28;;;;;;;21.23;11.63;;;;;;;20.57;88.93;100579.31;1788817;79;26549;-55
2022/08/18 02:03:58;;;;;;;17.50;11.18;;;;;;;20.59;89.17;100578.05;1789022;79;25745;-55
2022/08/18 02:06:26;;;;;;;23.30;12.60;;;;;;;20.58;88.77;100579.09;1790075;79;27301;-55
2022/08/18 02:08:53;;;;;;;16.00;11.83;;;;;;;20.64;88.51;100578.28;1797032;79;25915;-55
2022/08/18 02:11:20;;;;;;;18.62;10.95;;;;;;;20.66;88.54;100584.07;1797624;78;25798;-55
2022/08/18 02:13:47;;;;;;;20.72;11.70;;;;;;;20.68;88.63;100582.80;1797071;79;25779;-54
2022/08/18 02:16:15;;;;;;;16.60;10.32;;;;;;;20.71;88.09;100583.73;1797164;79;25682;-55
2022/08/18 02:18:42;;;;;;;17.12;10.28;;;;;;;20.73;87.84;100585.77;1797300;79;28263;-55
2022/08/18 02:21:14;;;;;;;18.87;10.43;;;;;;;20.77;87.88;100587.56;1796909;79;25738;-55
2022/08/18 02:23:43;;;;;;;14.58;10.58;;;;;;;20.80;87.61;100589.89;1799668;79;25730;-55
2022/08/18 02:26:15;;;;;;;14.35;11.03;;;;;;;20.81;87.90;100582.01;1807308;78;25774;-55
2022/08/18 02:28:42;;;;;;;20.43;11.03;;;;;;;20.80;87.61;100587.16;1807690;79;25742;-55
2022/08/18 02:31:16;;;;;;;22.65;11.65;;;;;;;20.82;87.35;100585.06;1807477;79;28571;-55
2022/08/18 02:33:45;;;;;;;14.90;10.95;;;;;;;20.78;87.56;100587.88;1807665;79;25675;-55
2022/08/18 02:36:13;;;;;;;12.20;9.85;;;;;;;20.80;87.59;100587.98;1807580;79;25679;-54
2022/08/18 02:38:41;;;;;;;15.58;10.35;;;;;;;20.79;87.68;100583.59;1807709;79;25885;-55
2022/08/18 02:41:11;;;;;;;14.05;10.32;;;;;;;20.73;88.17;100584.91;1807487;79;25749;-55
2022/08/18 02:43:40;;;;;;;18.00;11.20;;;;;;;20.67;88.41;100594.78;1807647;79;27419;-55
2022/08/18 02:46:08;;;;;;;19.90;10.90;;;;;;;20.62;88.50;100588.57;1804410;79;25901;-54
2022/08/18 02:48:35;;;;;;;22.02;10.48;;;;;;;20.55;89.23;100587.72;1800364;79;25721;-53
2022/08/18 02:51:14;;;;;;;15.88;10.50;;;;;;;20.49;89.93;100591.27;1800116;79;25839;-55
2022/08/18 02:53:43;;;;;;;13.35;10.45;;;;;;;20.41;90.74;100596.91;1799713;78;25743;-54
2022/08/18 02:56:23;;;;;;;14.63;10.88;;;;;;;20.35;90.83;100599.94;1797089;79;28285;-54
2022/08/18 02:58:59;;;;;;;12.88;10.45;;;;;;;20.33;90.97;100602.06;1796571;78;25894;-54
2022/08/18 03:01:31;;;;;;;15.23;10.82;;;;;;;20.29;91.21;100604.36;1797198;78;25799;-55
2022/08/18 03:04:00;;;;;;;16.52;10.38;;;;;;;20.29;91.16;100603.00;1796965;78;26794;-54
2022/08/18 03:06:29;;;;;;;17.82;10.45;;;;;;;20.29;91.69;100609.83;1797919;78;25478;-55
2022/08/18 03:08:56;;;;;;;14.98;10.05;;;;;;;20.26;91.80;100610.22;1797041;79;27602;-55
2022/08/18 03:11:27;;;;;;;15.15;10.35;;;;;;;20.28;91.45;100608.64;1796940;79;25747;-55
2022/08/18 03:13:55;;;;;;;19.27;10.65;;;;;;;20.32;91.14;100612.12;1797117;78;25777;-55
2022/08/18 03:16:26;;;;;;;15.90;9.50;;;;;;;20.39;91.02;100616.25;1796825;78;26387;-55
2022/08/18 03:18:53;;;;;;;19.00;10.43;;;;;;;20.41;90.63;100615.53;1797094;78;25754;-54
2022/08/18 03:21:24;;;;;;;17.35;9.73;;;;;;;20.43;90.86;100620.78;1796864;78;28524;-56
2022/08/18 03:23:54;;;;;;;17.27;12.85;;;;;;;20.41;90.43;100620.14;1801522;78;25735;-55
2022/08/18 03:26:24;;;;;;;14.63;10.72;;;;;;;20.43;90.23;100627.11;1811627;78;25729;-55
2022/08/18 03:28:53;;;;;;;17.92;10.95;;;;;;;20.52;90.53;100628.28;1811538;78;25899;-54
2022/08/18 03:31:23;;;;;;;21.55;10.00;;;;;;;20.56;89.91;100632.27;1811686;78;25974;-55
2022/08/18 03:33:52;;;;;;;19.37;10.40;;;;;;;20.51;89.95;100627.42;1811865;79;27516;-55
2022/08/18 03:37:33;;;;;;;13.62;9.75;;;;;;;20.49;89.81;100621.31;1811767;79;25918;-54
2022/08/18 03:40:00;;;;;;;19.15;10.55;;;;;;;20.49;89.89;100628.14;1810988;77;25729;-55
2022/08/18 03:42:27;;;;;;;21.75;11.28;;;;;;;20.50;89.88;100631.20;1811913;79;25940;-55
2022/08/18 03:44:54;;;;;;;14.28;9.58;;;;;;;20.51;90.00;100623.86;1811779;79;25943;-55
2022/08/18 03:47:20;;;;;;;20.62;10.00;;;;;;;20.56;89.60;100628.17;1792088;79;28296;-54
2022/08/18 03:49:48;;;;;;;19.60;11.38;;;;;;;20.59;89.42;100627.77;1794632;79;25910;-54
2022/08/18 03:52:15;;;;;;;16.60;10.15;;;;;;;20.59;89.16;100621.77;1794231;80;25777;-55
2022/08/18 03:54:42;;;;;;;14.43;9.65;;;;;;;20.61;89.13;100621.59;1793987;79;25775;-55
2022/08/18 03:57:12;;;;;;;16.70;10.18;;;;;;;20.62;88.91;100629.56;1794147;80;25500;-54
2022/08/18 03:59:42;;;;;;;15.60;9.70;;;;;;;20.67;88.73;100630.83;1794217;79;27451;-55
2022/08/18 04:02:11;;;;;;;13.05;9.48;;;;;;;20.69;88.60;100631.47;1793966;80;25706;-56
2022/08/18 04:04:38;;;;;;;16.12;9.80;;;;;;;20.76;88.47;100632.34;1759105;79;25776;-55
2022/08/18 04:07:09;;;;;;;17.73;9.98;;;;;;;20.79;88.08;100636.05;1790179;79;25779;-55
2022/08/18 04:09:37;;;;;;;13.72;10.28;;;;;;;20.83;87.86;100635.10;1791372;80;25825;-53
2022/08/18 04:12:14;;;;;;;17.12;10.20;;;;;;;20.86;87.58;100627.33;1791776;78;27447;-55
2022/08/18 04:14:45;;;;;;;13.25;9.85;;;;;;;20.86;87.39;100629.23;1791502;80;25912;-55
2022/08/18 04:17:12;;;;;;;19.35;10.90;;;;;;;20.82;87.41;100627.44;1791551;80;26195;-56
2022/08/18 04:19:39;;;;;;;21.57;10.13;;;;;;;20.84;87.23;100638.16;1791653;80;25901;-56
2022/08/18 04:22:06;;;;;;;15.72;9.73;;;;;;;20.87;87.38;100643.22;1791656;78;25697;-55
2022/08/18 04:24:33;;;;;;;18.07;10.32;;;;;;;20.93;87.32;100645.94;1776736;78;28109;-54
2022/08/18 04:27:03;;;;;;;16.55;9.75;;;;;;;21.00;87.06;100650.06;1723707;82;26435;-55
2022/08/18 04:29:30;;;;;;;17.62;10.13;;;;;;;21.05;86.87;100648.06;1763503;81;25846;-55
2022/08/18 04:32:02;;;;;;;17.75;10.82;;;;;;;21.01;86.12;100648.19;1804569;78;26022;-55
2022/08/18 04:34:32;;;;;;;17.42;11.12;;;;;;;20.99;85.99;100647.00;1804580;79;26180;-56
2022/08/18 04:36:59;;;;;;;17.05;9.55;;;;;;;20.95;86.10;100639.75;1804939;79;28433;-55
2022/08/18 04:39:25;;;;;;;13.05;10.28;;;;;;;20.93;86.25;100641.84;1804666;79;25698;-55
2022/08/18 04:41:53;;;;;;;15.58;10.20;;;;;;;20.87;86.32;100648.69;1804728;79;25817;-54
2022/08/18 04:44:21;;;;;;;14.70;10.30;;;;;;;20.83;86.32;100642.80;1804485;79;26387;-55
2022/08/18 04:46:50;;;;;;;19.50;11.63;;;;;;;20.85;86.38;100640.67;1798686;78;26069;-55
2022/08/18 04:49:24;;;;;;;15.30;10.72;;;;;;;20.93;86.68;100646.48;1795005;79;28305;-55
2022/08/18 04:54:39;;;;;;;15.65;9.98;;;;;;;21.05;86.00;100652.17;1791358;78;26043;-56
2022/08/18 04:57:17;;;;;;;17.02;10.48;;;;;;;21.13;86.47;100649.77;1789041;79;25735;-55
2022/08/18 04:59:49;;;;;;;15.10;9.93;;;;;;;21.13;85.88;100653.33;1788936;80;25782;-55
2022/08/18 05:02:17;;;;;;;19.23;10.32;;;;;;;21.18;85.57;100654.93;1789145;78;27629;-55
2022/08/18 05:04:46;;;;;;;14.40;10.08;;;;;;;21.24;85.41;100655.99;1788627;80;25757;-55
2022/08/18 05:07:17;;;;;;;19.15;10.25;;;;;;;21.25;84.96;100657.64;1795663;78;25913;-55
2022/08/18 05:09:44;;;;;;;17.70;10.68;;;;;;;21.23;84.74;100657.04;1797057;79;25929;-55
2022/08/18 05:12:14;;;;;;;17.35;9.83;;;;;;;21.27;84.55;100665.13;1797010;78;25665;-55
2022/08/18 05:14:44;;;;;;;13.43;9.75;;;;;;;21.29;84.72;100657.55;1797038;78;27693;-55
2022/08/18 05:17:13;;;;;;;14.83;10.15;;;;;;;21.39;84.84;100662.09;1797098;78;25730;-55
2022/08/18 05:19:42;;;;;;;12.88;9.65;;;;;;;21.47;84.42;100656.08;1797187;79;25747;-54
2022/08/18 05:22:12;;;;;;;13.10;10.35;;;;;;;21.46;83.89;100652.52;1797232;78;26482;-55
2022/08/18 05:24:39;;;;;;;17.07;9.43;;;;;;;21.50;83.58;100653.76;1806198;79;25795;-54
2022/08/18 05:27:06;;;;;;;15.75;9.23;;;;;;;21.53;83.16;100654.72;1772701;80;27575;-55
2022/08/18 05:29:35;;;;;;;15.28;8.45;;;;;;;21.54;82.81;100659.14;1840429;77;25714;-55
2022/08/18 05:32:06;;;;;;;16.30;9.08;;;;;;;21.59;82.97;100651.69;1833824;77;25811;-55
2022/08/18 05:34:34;;;;;;;23.95;9.15;;;;;;;21.70;82.58;100655.67;1833879;78;25935;-55
2022/08/18 05:37:12;;;;;;;11.25;8.75;;;;;;;21.78;82.55;100662.83;1833938;78;25632;-55
2022/08/18 05:39:57;;;;;;;13.98;8.40;;;;;;;21.84;82.12;100660.05;1833835;78;27447;-54
2022/08/18 05:42:27;;;;;;;16.65;9.20;;;;;;;21.89;81.33;100659.41;1833783;78;25716;-54
2022/08/18 05:44:55;;;;;;;13.43;9.13;;;;;;;21.82;81.41;100659.95;1833553;78;25774;-56
2022/08/18 05:47:32;;;;;;;14.93;9.40;;;;;;;21.88;81.49;100662.69;1799003;78;26248;-56
2022/08/18 05:50:15;;;;;;;17.10;8.90;;;;;;;21.97;81.23;100656.98;1795048;78;25700;-54
2022/08/18 05:52:56;;;;;;;14.77;9.67;;;;;;;22.04;81.11;100659.17;1800204;79;27457;-55
2022/08/18 05:58:30;;;;;;;19.30;12.00;;;;;;;22.16;79.49;100662.08;1800300;79;25786;-55
2022/08/18 06:01:04;;;;;;;23.57;13.62;;;;;;;22.22;79.82;100667.22;1799972;79;25938;-55
2022/08/18 06:04:01;;;;;;;17.20;12.03;;;;;;;22.24;78.64;100667.31;1800246;79;26086;-54
2022/08/18 06:06:30;;;;;;;21.57;12.00;;;;;;;22.27;78.86;100662.78;1784319;78;28007;-55
2022/08/18 06:09:37;;;;;;;16.35;12.88;;;;;;;22.42;78.65;100669.41;1800063;78;25936;-55
2022/08/18 06:12:12;;;;;;;22.82;13.25;;;;;;;22.46;77.56;100670.63;1799966;78;25454;-55
2022/08/18 06:14:40;;;;;;;20.15;13.15;;;;;;;22.47;77.54;100679.17;1796965;78;26010;-54
2022/08/18 06:17:53;;;;;;;14.83;12.65;;;;;;;22.50;77.75;100673.80;1800233;78;25696;-53
2022/08/18 06:20:46;;;;;;;19.55;12.15;;;;;;;22.55;77.12;100664.38;1799926;79;27714;-55
2022/08/18 06:23:28;;;;;;;15.20;12.53;;;;;;;22.66;77.63;100676.03;1799119;79;26156;-55
2022/08/18 06:26:00;;;;;;;21.12;12.80;;;;;;;22.75;77.08;100679.35;1799768;78;26028;-55
2022/08/18 06:28:33;;;;;;;20.82;12.23;;;;;;;22.90;75.64;100680.42;1800319;78;25780;-55
2022/08/18 06:31:08;;;;;;;16.40;11.60;;;;;;;23.01;75.12;100689.84;1798070;79;25775;-54
2022/08/18 06:34:09;;;;;;;13.53;10.03;;;;;;;23.07;75.78;100686.23;1793796;79;28579;-55
2022/08/18 06:37:04;;;;;;;11.25;8.18;;;;;;;23.24;76.25;100682.44;1800231;78;26194;-56
2022/08/18 06:39:47;;;;;;;12.47;8.33;;;;;;;23.39;74.38;100695.02;1800201;77;25720;-55
2022/08/18 06:42:29;;;;;;;13.43;7.65;;;;;;;23.52;74.62;100699.00;1797413;78;26697;-56
2022/08/18 06:45:01;;;;;;;15.03;8.35;;;;;;;23.72;73.66;100685.09;1800187;78;25774;-56
2022/08/18 06:48:13;;;;;;;12.80;7.72;;;;;;;23.83;73.88;100688.16;1799334;78;28431;-55
2022/08/18 06:50:56;;;;;;;11.40;7.85;;;;;;;23.91;72.09;100685.97;1811196;78;25648;-56
2022/08/18 06:53:55;;;;;;;15.45;8.33;;;;;;;23.86;71.72;100695.41;1773066;80;25747;-55
2022/08/18 06:56:48;;;;;;;14.63;8.15;;;;;;;23.76;71.91;100695.94;1772896;80;25922;-55
2022/08/18 06:59:26;;;;;;;12.73;9.20;;;;;;;23.70;71.90;100697.37;1768003;80;25763;-55
2022/08/18 07:02:15;;;;;;;10.55;8.15;;;;;;;23.64;71.93;100687.30;1767507;81;27474;-56
2022/08/18 07:05:04;;;;;;;11.12;7.22;;;;;;;23.70;72.08;100688.61;1810592;78;25762;-56
2022/08/18 07:07:37;;;;;;;19.95;7.35;;;;;;;23.83;71.60;100689.02;1811823;78;25727;-56
2022/08/18 07:10:18;;;;;;;16.15;8.40;;;;;;;23.99;71.70;100698.59;1773313;80;25809;-55
2022/08/18 07:12:45;;;;;;;12.98;8.93;;;;;;;24.11;71.03;100690.45;1773081;80;26119;-55
2022/08/18 07:15:13;;;;;;;15.05;9.68;;;;;;;24.21;71.46;100695.41;1773311;80;27706;-55
2022/08/18 07:17:41;;;;;;;17.52;9.40;;;;;;;24.15;70.41;100698.53;1752241;80;25823;-55
2022/08/18 07:20:23;;;;;;;16.67;9.48;;;;;;;24.12;71.04;100696.23;1773267;80;25685;-55
2022/08/18 07:23:02;;;;;;;18.40;8.63;;;;;;;24.17;70.78;100702.41;1773238;79;25751;-54
2022/08/18 07:25:38;;;;;;;12.82;8.88;;;;;;;24.27;71.02;100704.09;1773529;80;25514;-55
2022/08/18 07:28:06;;;;;;;9.78;7.67;;;;;;;24.38;70.60;100705.27;1772220;80;27608;-55
2022/08/18 07:30:37;;;;;;;15.38;8.20;;;;;;;24.33;68.82;100705.95;1772952;80;25749;-55
2022/08/18 07:33:21;;;;;;;13.22;8.93;;;;;;;24.30;69.32;100702.27;1773104;80;26268;-55
2022/08/18 07:35:56;;;;;;;14.10;8.35;;;;;;;24.36;69.06;100697.77;1773190;80;26628;-55
2022/08/18 07:38:42;;;;;;;18.85;8.80;;;;;;;24.37;68.60;100704.95;1772455;80;43119;-55
2022/08/18 07:41:30;;;;;;;14.03;8.18;;;;;;;24.25;68.48;100704.03;1772995;80;27480;-55
2022/08/18 07:44:05;;;;;;;17.80;8.10;;;;;;;24.30;69.02;100704.16;1761996;80;25699;-55
2022/08/18 07:46:58;;;;;;;11.08;7.45;;;;;;;24.43;69.06;100699.08;1786582;79;25771;-55
2022/08/18 07:49:29;;;;;;;12.00;7.62;;;;;;;24.50;68.35;100702.57;1771204;80;25784;-55
2022/08/18 07:52:21;;;;;;;14.87;7.80;;;;;;;24.65;68.51;100692.00;1730365;82;26749;-56
2022/08/18 07:55:09;;;;;;;10.15;7.30;;;;;;;24.82;68.58;100690.00;1749671;80;28154;-55
2022/08/18 07:58:10;;;;;;;14.85;7.00;;;;;;;24.98;67.74;100683.02;1847014;77;25759;-56
2022/08/18 08:00:48;;;;;;;13.05;7.78;;;;;;;25.07;66.04;100689.86;1813255;77;25790;-55
2022/08/18 08:03:35;;;;;;;9.50;6.78;;;;;;;25.06;65.37;100686.80;1809629;77;25804;-56
2022/08/18 08:06:16;;;;;;;11.90;8.20;;;;;;;25.09;65.46;100688.23;1801232;77;25737;-56
2022/08/18 08:09:12;;;;;;;12.73;7.33;;;;;;;25.12;65.99;100687.23;1803575;77;27469;-55
2022/08/18 08:11:56;;;;;;;11.10;7.10;;;;;;;25.16;65.86;100693.95;1810954;77;26615;-55
2022/08/18 08:14:44;;;;;;;11.03;7.42;;;;;;;25.23;64.97;100693.86;1811663;78;25773;-56
2022/08/18 08:17:31;;;;;;;11.50;7.47;;;;;;;25.18;65.42;100692.33;1773266;79;25951;-54
2022/08/18 08:20:24;;;;;;;18.07;6.42;;;;;;;25.36;65.29;100693.33;1773213;80;25745;-55
2022/08/18 08:23:05;;;;;;;14.95;7.25;;;;;;;25.55;64.85;100685.85;1772094;80;27608;-55
2022/08/18 08:25:56;;;;;;;10.65;7.30;;;;;;;25.78;64.65;100687.75;1749535;80;25800;-56
2022/08/18 08:28:31;;;;;;;15.10;8.03;;;;;;;25.96;64.26;100683.19;1749359;80;25464;-55
2022/08/18 08:31:17;;;;;;;15.15;9.05;;;;;;;26.12;63.09;100683.88;1726574;83;25933;-55
2022/08/18 08:33:51;;;;;;;12.43;7.05;;;;;;;26.14;61.84;100680.87;1726208;83;25725;-56
2022/08/18 08:36:32;;;;;;;9.75;6.92;;;;;;;26.08;60.96;100682.64;1726427;83;27567;-56
2022/08/18 08:39:04;;;;;;;10.32;6.80;;;;;;;25.98;61.53;100686.02;1728911;80;25802;-56
2022/08/18 08:41:49;;;;;;;15.60;7.17;;;;;;;26.11;61.90;100685.48;1727002;81;25818;-56
2022/08/18 08:44:39;;;;;;;11.38;6.80;;;;;;;26.14;61.62;100684.45;1744719;81;26848;-57
2022/08/18 08:47:31;;;;;;;11.35;6.53;;;;;;;26.30;62.04;100688.94;1759994;81;25725;-55
2022/08/18 08:50:09;;;;;;;11.43;6.80;;;;;;;26.33;60.84;100688.43;1746453;80;27438;-55
2022/08/18 08:52:53;;;;;;;14.65;6.78;;;;;;;26.30;60.64;100691.70;1726340;83;25751;-55
2022/08/18 08:55:36;;;;;;;12.80;6.47;;;;;;;26.15;60.80;100697.16;1752937;81;26185;-56
2022/08/18 08:58:18;;;;;;;14.60;7.00;;;;;;;26.22;61.84;100688.77;1756313;80;26045;-55
2022/08/18 09:00:47;;;;;;;12.53;7.40;;;;;;;26.39;61.02;100684.16;1726206;82;25784;-55
2022/08/18 09:03:48;;;;;;;9.28;6.45;;;;;;;26.53;60.32;100680.58;1737914;80;27643;-56
2022/08/18 09:06:29;;;;;;;15.88;6.47;;;;;;;26.87;59.63;100683.47;1744744;81;25821;-55
2022/08/18 09:09:44;;;;;;;11.97;6.90;;;;;;;27.24;59.49;100680.81;1748820;81;25803;-55
2022/08/18 09:12:35;;;;;;;14.03;6.83;;;;;;;27.39;57.66;100687.11;1725381;80;25811;-55
2022/08/18 09:15:41;;;;;;;12.90;6.42;;;;;;;27.26;56.97;100683.31;1721352;82;26136;-55
2022/08/18 09:19:03;;;;;;;11.05;6.47;;;;;;;27.29;57.81;100686.97;1719907;80;28289;-56
2022/08/18 09:21:47;;;;;;;11.25;6.47;;;;;;;27.47;58.02;100683.14;1719459;82;25736;-56
2022/08/18 09:24:31;;;;;;;9.05;6.20;;;;;;;27.67;57.39;100684.55;1713428;80;25799;-56
2022/08/18 09:27:25;;;;;;;14.03;7.10;;;;;;;27.95;56.99;100680.81;1723652;83;26588;-55
2022/08/18 09:29:57;;;;;;;9.70;6.25;;;;;;;28.00;55.20;100684.19;1726085;80;25701;-55
2022/08/18 09:32:29;;;;;;;25.20;6.87;;;;;;;28.02;56.03;100682.84;1720509;80;27484;-56
2022/08/18 09:35:28;;;;;;;8.47;5.30;;;;;;;28.04;55.46;100683.98;1728706;80;25543;-56
2022/08/18 09:44:10;;;;;;;12.93;5.62;;;;;;;28.23;53.64;100669.33;1723186;82;25761;-56
2022/08/18 09:46:51;;;;;;;8.05;5.72;;;;;;;28.43;52.98;100671.50;1722891;83;27478;-56
2022/08/18 09:49:29;;;;;;;10.85;6.20;;;;;;;28.20;52.77;100672.06;1738446;81;25804;-56
2022/08/18 09:52:22;;;;;;;17.25;5.62;;;;;;;28.81;52.30;100662.82;1761212;80;26445;-56
2022/08/18 09:55:01;;;;;;;14.70;5.97;;;;;;;29.45;50.42;100665.92;1755803;80;26762;-56
2022/08/18 09:57:33;;;;;;;15.03;5.08;;;;;;;30.25;48.40;100653.91;1739162;81;26261;-55
2022/08/18 10:00:11;;;;;;;13.78;5.45;;;;;;;30.76;46.78;100653.25;1753314;81;28338;-56
2022/08/18 10:02:42;;;;;;;11.25;5.47;;;;;;;31.42;45.56;100656.36;1753326;81;25676;-56
2022/08/18 10:05:20;;;;;;;8.08;5.12;;;;;;;31.96;45.64;100655.72;1753711;81;25740;-56
2022/08/18 10:08:04;;;;;;;15.53;5.62;;;;;;;32.37;45.52;100655.28;1753404;81;26009;-57
2022/08/18 10:10:48;;;;;;;9.95;4.58;;;;;;;32.89;42.59;100650.27;1753262;81;25772;-55
2022/08/18 10:13:55;;;;;;;11.10;4.78;;;;;;;33.05;43.57;100652.39;1753275;81;28534;-55
2022/08/18 10:16:51;;;;;;;20.80;5.20;;;;;;;32.77;41.81;100655.61;1753217;81;25464;-56
2022/08/18 10:19:33;;;;;;;14.40;5.05;;;;;;;32.12;43.28;100661.22;1752804;81;25812;-55
2022/08/18 10:22:03;;;;;;;18.05;5.45;;;;;;;31.75;44.26;100650.78;1751911;81;25897;-55
2022/08/18 10:24:44;;;;;;;9.20;5.05;;;;;;;31.46;45.03;100656.91;1753573;81;25459;-55
2022/08/18 10:27:37;;;;;;;10.03;4.78;;;;;;;31.66;45.56;100654.64;1753328;81;27477;-55
2022/08/18 10:30:06;;;;;;;15.10;5.10;;;;;;;32.19;43.76;100658.95;1753401;81;35275;-55
2022/08/18 10:32:40;;;;;;;18.98;5.33;;;;;;;32.40;44.53;100658.91;1732157;81;25522;-55
2022/08/18 10:35:32;;;;;;;10.35;4.97;;;;;;;32.65;43.93;100646.80;1753361;81;26124;-55
2022/08/18 10:38:04;;;;;;;12.78;4.87;;;;;;;33.27;42.82;100646.34;1753391;81;26450;-55
2022/08/18 10:40:33;;;;;;;10.50;4.75;;;;;;;34.28;41.18;100643.89;1753427;81;33453;-55
2022/08/18 10:43:20;;;;;;;12.58;5.50;;;;;;;34.42;40.07;100638.42;1753425;81;25747;-55
2022/08/18 10:45:51;;;;;;;14.98;4.85;;;;;;;33.94;40.55;100643.48;1753594;81;25699;-55
2022/08/18 10:48:27;;;;;;;15.18;5.20;;;;;;;33.50;40.30;100644.77;1753395;81;25985;-55
2022/08/18 10:51:17;;;;;;;8.58;5.72;;;;;;;32.92;41.01;100642.73;1753588;80;25940;-55
2022/08/18 10:54:12;;;;;;;7.80;4.87;;;;;;;33.24;40.87;100640.80;1748174;80;27435;-55
2022/08/18 10:56:57;;;;;;;12.18;5.22;;;;;;;33.51;40.96;100638.06;1729107;82;25727;-56
2022/08/18 10:59:38;;;;;;;10.95;4.42;;;;;;;34.43;39.98;100635.32;1730040;82;25959;-55
2022/08/18 11:02:34;;;;;;;10.72;4.80;;;;;;;34.38;39.53;100643.78;1729554;82;26615;-55
2022/08/18 11:05:06;;;;;;;12.15;4.95;;;;;;;33.90;40.52;100643.25;1729630;82;26234;-55
2022/08/18 11:07:34;;;;;;;8.20;4.93;;;;;;;33.58;40.58;100638.27;1730573;81;28503;-56
2022/08/18 11:10:16;;;;;;;13.30;4.90;;;;;;;34.06;39.46;100636.08;1810391;79;25734;-56
2022/08/18 11:13:15;;;;;;;11.40;4.63;;;;;;;34.33;39.89;100641.05;1827431;77;25763;-56
2022/08/18 11:15:59;;;;;;;13.00;4.90;;;;;;;35.12;38.64;100637.39;1775251;80;25989;-56
2022/08/18 11:18:37;;;;;;;10.30;5.12;;;;;;;35.71;37.65;100633.55;1841234;77;25691;-56
2022/08/18 11:21:33;;;;;;;11.40;4.70;;;;;;;35.98;35.85;100618.73;1847806;77;27560;-56
2022/08/18 11:24:34;;;;;;;10.55;3.95;;;;;;;36.63;36.59;100621.52;1846374;77;25635;-57
2022/08/18 11:27:09;;;;;;;7.78;3.90;;;;;;;37.16;34.61;100616.34;1848251;77;25694;-55
2022/08/18 11:29:40;;;;;;;12.33;4.50;;;;;;;37.78;33.47;100609.06;1847962;77;25818;-57
2022/08/18 11:32:30;;;;;;;8.58;4.33;;;;;;;38.12;32.26;100608.34;1848360;77;25683;-56
2022/08/18 11:35:03;;;;;;;14.25;4.35;;;;;;;38.10;32.44;100616.84;1848216;77;27468;-56
2022/08/18 11:37:44;;;;;;;7.50;4.05;;;;;;;38.02;32.90;100606.68;1807996;78;25677;-56
2022/08/18 11:40:34;;;;;;;11.50;4.67;;;;;;;38.26;32.42;100600.36;1848266;77;25679;-56
2022/08/18 11:43:19;;;;;;;14.58;4.37;;;;;;;38.37;32.30;100603.13;1848191;77;25878;-56
2022/08/18 11:46:00;;;;;;;20.75;4.92;;;;;;;38.13;32.06;100593.14;1848219;77;26062;-56
2022/08/18 11:48:39;;;;;;;10.45;4.65;;;;;;;37.32;32.46;100600.76;1843013;77;33019;-56
2022/08/18 11:51:23;;;;;;;9.75;4.45;;;;;;;36.43;33.12;100600.42;1804774;79;26065;-56
2022/08/18 11:54:04;;;;;;;11.88;4.42;;;;;;;35.64;33.93;100596.73;1806176;79;25740;-55
2022/08/18 11:56:33;;;;;;;12.60;4.33;;;;;;;35.29;34.66;100597.65;1807253;79;25821;-56
2022/08/18 11:59:30;;;;;;;19.57;4.55;;;;;;;35.42;35.81;100595.48;1810023;79;25989;-56
2022/08/18 12:01:58;;;;;;;9.55;3.98;;;;;;;36.61;33.61;100591.61;1809983;79;28110;-56
2022/08/18 12:04:38;;;;;;;9.68;4.53;;;;;;;37.13;33.29;100592.55;1809864;79;25767;-56
2022/08/18 12:07:17;;;;;;;9.78;3.67;;;;;;;37.85;32.34;100584.15;1810227;79;25722;-56
2022/08/18 12:09:49;;;;;;;11.30;4.15;;;;;;;37.88;32.39;100587.72;1787393;79;26746;-56
2022/08/18 12:12:26;;;;;;;9.60;4.05;;;;;;;37.36;31.17;100576.51;1810179;79;26137;-56
2022/08/18 12:15:01;;;;;;;10.70;3.58;;;;;;;37.27;31.30;100567.23;1796135;77;28179;-56
2022/08/18 12:17:31;;;;;;;23.50;3.90;;;;;;;37.92;30.32;100568.27;1779547;79;25988;-56